sensor_id;sensor_type;location;lat;lon;timestamp;pressure;altitude;pressure_sealevel;temperature;humidity
10392;BME280;5242;49.244;6.774;2023-07-29T00:06:01;98988.25;;;18.24;nan
10392;BME280;5242;49.244;6.774;2023-07-29T00:13:53;98978.72;;;18.29;nan
10392;BME280;5242;49.244;6.774;2023-07-29T00:21:46;98977.84;;;18.36;nan
10392;BME280;5242;49.244;6.774;2023-07-29T00:29:37;98973.75;;;18.44;nan
10392;BME280;5242;49.244;6.774;2023-07-29T00:37:30;98978.34;;;18.51;nan
10392;BME280;5242;49.244;6.774;2023-07-29T00:45:23;98966.50;;;18.54;nan
10392;BME280;5242;49.244;6.774;2023-07-29T00:53:16;98973.56;;;18.55;nan
10392;BME280;5242;49.244;6.774;2023-07-29T01:01:08;98971.53;;;18.59;nan
10392;BME280;5242;49.244;6.774;2023-07-29T01:09:25;98958.81;;;18.65;nan
10392;BME280;5242;49.244;6.774;2023-07-29T01:17:47;98952.06;;;18.66;nan
10392;BME280;5242;49.244;6.774;2023-07-29T01:25:40;98944.66;;;18.63;nan
10392;BME280;5242;49.244;6.774;2023-07-29T01:33:40;98945.22;;;18.54;nan
10392;BME280;5242;49.244;6.774;2023-07-29T01:41:34;98941.44;;;18.44;nan
10392;BME280;5242;49.244;6.774;2023-07-29T01:49:27;98924.19;;;18.40;nan
10392;BME280;5242;49.244;6.774;2023-07-29T01:57:19;98924.19;;;18.40;nan
10392;BME280;5242;49.244;6.774;2023-07-29T02:05:10;98926.88;;;18.44;nan
10392;BME280;5242;49.244;6.774;2023-07-29T02:13:03;98915.41;;;18.45;nan
10392;BME280;5242;49.244;6.774;2023-07-29T02:20:55;98927.72;;;18.41;nan
10392;BME280;5242;49.244;6.774;2023-07-29T02:28:46;98928.13;;;18.39;nan
10392;BME280;5242;49.244;6.774;2023-07-29T02:36:38;98924.19;;;18.40;nan
10392;BME280;5242;49.244;6.774;2023-07-29T02:44:31;98917.84;;;18.43;nan
10392;BME280;5242;49.244;6.774;2023-07-29T02:52:23;98917.78;;;18.47;nan
10392;BME280;5242;49.244;6.774;2023-07-29T03:00:15;98913.75;;;18.52;nan
10392;BME280;5242;49.244;6.774;2023-07-29T03:08:07;98902.28;;;18.53;nan
10392;BME280;5242;49.244;6.774;2023-07-29T03:16:09;98896.34;;;18.55;nan
10392;BME280;5242;49.244;6.774;2023-07-29T03:24:01;98896.34;;;18.55;nan
10392;BME280;5242;49.244;6.774;2023-07-29T03:31:53;98896.34;;;18.55;nan
10392;BME280;5242;49.244;6.774;2023-07-29T03:39:45;98888.09;;;18.55;nan
10392;BME280;5242;49.244;6.774;2023-07-29T03:47:36;98880.53;;;18.59;nan
10392;BME280;5242;49.244;6.774;2023-07-29T03:55:29;98879.69;;;18.62;nan
10392;BME280;5242;49.244;6.774;2023-07-29T04:03:21;98876.06;;;18.65;nan
10392;BME280;5242;49.244;6.774;2023-07-29T04:11:13;98880.38;;;18.66;nan
10392;BME280;5242;49.244;6.774;2023-07-29T04:19:05;98877.97;;;18.68;nan
10392;BME280;5242;49.244;6.774;2023-07-29T04:26:57;98892.53;;;18.68;nan
10392;BME280;5242;49.244;6.774;2023-07-29T04:34:49;98888.50;;;18.73;nan
10392;BME280;5242;49.244;6.774;2023-07-29T04:42:41;98883.38;;;18.75;nan
10392;BME280;5242;49.244;6.774;2023-07-29T04:50:32;98893.56;;;18.78;nan
10392;BME280;5242;49.244;6.774;2023-07-29T04:58:24;98889.91;;;18.85;nan
10392;BME280;5242;49.244;6.774;2023-07-29T05:06:16;98890.81;;;18.98;nan
10392;BME280;5242;49.244;6.774;2023-07-29T05:14:08;98900.06;;;19.08;nan
10392;BME280;5242;49.244;6.774;2023-07-29T05:22:01;98908.53;;;19.17;nan
10392;BME280;5242;49.244;6.774;2023-07-29T05:29:53;98903.56;;;19.28;nan
10392;BME280;5242;49.244;6.774;2023-07-29T05:37:44;98919.03;;;19.42;nan
10392;BME280;5242;49.244;6.774;2023-07-29T05:45:36;98927.59;;;19.48;nan
10392;BME280;5242;49.244;6.774;2023-07-29T05:53:28;98928.81;;;19.63;nan
10392;BME280;5242;49.244;6.774;2023-07-29T06:01:20;98938.47;;;20.08;nan
10392;BME280;5242;49.244;6.774;2023-07-29T06:09:13;98956.06;;;20.63;nan
10392;BME280;5242;49.244;6.774;2023-07-29T06:17:05;98957.34;;;21.04;nan
10392;BME280;5242;49.244;6.774;2023-07-29T06:24:58;98961.53;;;21.09;nan
10392;BME280;5242;49.244;6.774;2023-07-29T06:32:51;98955.00;;;21.02;nan
10392;BME280;5242;49.244;6.774;2023-07-29T06:40:43;98970.59;;;20.96;nan
10392;BME280;5242;49.244;6.774;2023-07-29T06:48:35;98981.38;;;21.07;nan
10392;BME280;5242;49.244;6.774;2023-07-29T06:56:27;98989.16;;;21.12;nan
10392;BME280;5242;49.244;6.774;2023-07-29T07:04:19;98978.16;;;21.09;nan
10392;BME280;5242;49.244;6.774;2023-07-29T07:12:10;98981.63;;;21.80;nan
10392;BME280;5242;49.244;6.774;2023-07-29T07:20:02;98968.09;;;22.68;nan
10392;BME280;5242;49.244;6.774;2023-07-29T07:27:55;98975.59;;;23.15;nan
10392;BME280;5242;49.244;6.774;2023-07-29T07:35:47;98983.06;;;23.28;nan
10392;BME280;5242;49.244;6.774;2023-07-29T07:43:38;98979.09;;;23.91;nan
10392;BME280;5242;49.244;6.774;2023-07-29T07:51:30;98970.59;;;24.44;nan
10392;BME280;5242;49.244;6.774;2023-07-29T07:59:22;98982.06;;;25.11;nan
10392;BME280;5242;49.244;6.774;2023-07-29T08:07:14;98987.97;;;24.85;nan
10392;BME280;5242;49.244;6.774;2023-07-29T08:15:06;98992.59;;;25.07;nan
10392;BME280;5242;49.244;6.774;2023-07-29T08:22:58;98973.56;;;26.42;nan
10392;BME280;5242;49.244;6.774;2023-07-29T08:30:50;98978.75;;;27.12;nan
10392;BME280;5242;49.244;6.774;2023-07-29T08:38:42;98979.34;;;26.05;nan
10392;BME280;5242;49.244;6.774;2023-07-29T08:46:34;98969.13;;;27.87;nan
10392;BME280;5242;49.244;6.774;2023-07-29T08:54:27;98982.19;;;30.03;nan
10392;BME280;5242;49.244;6.774;2023-07-29T09:02:20;98997.44;;;29.33;nan
10392;BME280;5242;49.244;6.774;2023-07-29T09:10:13;98996.09;;;28.40;nan
10392;BME280;5242;49.244;6.774;2023-07-29T09:18:14;98999.16;;;31.73;nan
10392;BME280;5242;49.244;6.774;2023-07-29T09:26:07;99009.38;;;31.48;nan
10392;BME280;5242;49.244;6.774;2023-07-29T09:34:03;98992.72;;;31.84;nan
10392;BME280;5242;49.244;6.774;2023-07-29T09:41:55;98999.84;;;34.32;nan
10392;BME280;5242;49.244;6.774;2023-07-29T09:49:48;99005.13;;;34.16;nan
10392;BME280;5242;49.244;6.774;2023-07-29T09:57:40;99012.31;;;34.17;nan
10392;BME280;5242;49.244;6.774;2023-07-29T10:05:32;99010.41;;;31.96;nan
10392;BME280;5242;49.244;6.774;2023-07-29T10:13:26;99012.94;;;30.61;nan
10392;BME280;5242;49.244;6.774;2023-07-29T10:21:19;99009.81;;;32.37;nan
10392;BME280;5242;49.244;6.774;2023-07-29T10:29:13;98992.09;;;33.83;nan
10392;BME280;5242;49.244;6.774;2023-07-29T10:37:07;98988.41;;;36.55;nan
10392;BME280;5242;49.244;6.774;2023-07-29T10:44:59;98974.38;;;37.53;nan
10392;BME280;5242;49.244;6.774;2023-07-29T10:52:52;98972.19;;;37.04;nan
10392;BME280;5242;49.244;6.774;2023-07-29T11:00:45;98981.72;;;36.00;nan
10392;BME280;5242;49.244;6.774;2023-07-29T11:08:37;98982.91;;;35.91;nan
10392;BME280;5242;49.244;6.774;2023-07-29T11:16:29;98986.03;;;36.46;nan
10392;BME280;5242;49.244;6.774;2023-07-29T11:24:21;98977.56;;;34.23;nan
10392;BME280;5242;49.244;6.774;2023-07-29T11:32:14;98969.34;;;35.06;nan
10392;BME280;5242;49.244;6.774;2023-07-29T11:40:07;98969.81;;;36.94;nan
10392;BME280;5242;49.244;6.774;2023-07-29T11:48:02;98962.78;;;34.60;nan
10392;BME280;5242;49.244;6.774;2023-07-29T11:55:54;98949.84;;;33.36;nan
10392;BME280;5242;49.244;6.774;2023-07-29T12:03:46;98966.53;;;32.98;nan
10392;BME280;5242;49.244;6.774;2023-07-29T12:11:39;98958.66;;;33.87;nan
10392;BME280;5242;49.244;6.774;2023-07-29T12:19:36;98943.91;;;35.97;nan
10392;BME280;5242;49.244;6.774;2023-07-29T12:27:30;98966.53;;;34.68;nan
10392;BME280;5242;49.244;6.774;2023-07-29T12:35:22;98961.56;;;32.68;nan
10392;BME280;5242;49.244;6.774;2023-07-29T12:43:14;98933.13;;;33.08;nan
10392;BME280;5242;49.244;6.774;2023-07-29T12:51:06;98928.00;;;35.94;nan
10392;BME280;5242;49.244;6.774;2023-07-29T12:58:58;98924.59;;;37.52;nan
10392;BME280;5242;49.244;6.774;2023-07-29T13:06:50;98928.91;;;34.92;nan
10392;BME280;5242;49.244;6.774;2023-07-29T13:14:42;98928.22;;;31.92;nan
10392;BME280;5242;49.244;6.774;2023-07-29T13:22:34;98938.81;;;30.52;nan
10392;BME280;5242;49.244;6.774;2023-07-29T13:30:26;98931.31;;;29.84;nan
10392;BME280;5242;49.244;6.774;2023-07-29T13:38:18;98929.63;;;30.52;nan
10392;BME280;5242;49.244;6.774;2023-07-29T13:46:11;98905.78;;;30.25;nan
10392;BME280;5242;49.244;6.774;2023-07-29T13:54:04;98919.91;;;29.61;nan
10392;BME280;5242;49.244;6.774;2023-07-29T14:01:56;98919.88;;;29.93;nan
10392;BME280;5242;49.244;6.774;2023-07-29T14:09:48;98911.78;;;30.06;nan
10392;BME280;5242;49.244;6.774;2023-07-29T14:17:40;98918.41;;;30.03;nan
10392;BME280;5242;49.244;6.774;2023-07-29T14:25:32;98899.56;;;30.09;nan
10392;BME280;5242;49.244;6.774;2023-07-29T14:33:24;98914.03;;;29.97;nan
10392;BME280;5242;49.244;6.774;2023-07-29T14:41:17;98906.53;;;29.77;nan
10392;BME280;5242;49.244;6.774;2023-07-29T14:49:08;98892.63;;;29.62;nan
10392;BME280;5242;49.244;6.774;2023-07-29T14:57:00;98907.34;;;29.88;nan
10392;BME280;5242;49.244;6.774;2023-07-29T15:04:52;98892.03;;;29.52;nan
10392;BME280;5242;49.244;6.774;2023-07-29T15:12:44;98904.22;;;28.65;nan
10392;BME280;5242;49.244;6.774;2023-07-29T15:20:36;98918.19;;;27.83;nan
10392;BME280;5242;49.244;6.774;2023-07-29T15:28:28;98921.72;;;27.48;nan
10392;BME280;5242;49.244;6.774;2023-07-29T15:36:20;98911.91;;;27.38;nan
10392;BME280;5242;49.244;6.774;2023-07-29T15:44:12;98910.75;;;27.30;nan
10392;BME280;5242;49.244;6.774;2023-07-29T15:52:04;98899.16;;;27.52;nan
10392;BME280;5242;49.244;6.774;2023-07-29T15:59:56;98906.13;;;27.27;nan
10392;BME280;5242;49.244;6.774;2023-07-29T16:07:48;98903.59;;;26.99;nan
10392;BME280;5242;49.244;6.774;2023-07-29T16:15:41;98910.41;;;26.83;nan
10392;BME280;5242;49.244;6.774;2023-07-29T16:23:33;98906.25;;;26.79;nan
10392;BME280;5242;49.244;6.774;2023-07-29T16:31:25;98915.53;;;26.85;nan
10392;BME280;5242;49.244;6.774;2023-07-29T16:39:17;98896.56;;;26.50;nan
10392;BME280;5242;49.244;6.774;2023-07-29T16:47:09;98898.03;;;26.21;nan
10392;BME280;5242;49.244;6.774;2023-07-29T16:55:01;98889.19;;;25.99;nan
10392;BME280;5242;49.244;6.774;2023-07-29T17:02:53;98867.81;;;25.96;nan
10392;BME280;5242;49.244;6.774;2023-07-29T17:10:45;98880.81;;;25.99;nan
10392;BME280;5242;49.244;6.774;2023-07-29T17:18:37;98892.09;;;26.05;nan
10392;BME280;5242;49.244;6.774;2023-07-29T17:26:30;98893.50;;;26.00;nan
10392;BME280;5242;49.244;6.774;2023-07-29T17:34:22;98903.31;;;25.95;nan
10392;BME280;5242;49.244;6.774;2023-07-29T17:42:14;98897.94;;;25.83;nan
10392;BME280;5242;49.244;6.774;2023-07-29T17:50:06;98897.41;;;25.60;nan
10392;BME280;5242;49.244;6.774;2023-07-29T17:57:58;98896.72;;;25.41;nan
10392;BME280;5242;49.244;6.774;2023-07-29T18:05:51;98900.63;;;25.25;nan
10392;BME280;5242;49.244;6.774;2023-07-29T18:13:43;98904.13;;;24.74;nan
10392;BME280;5242;49.244;6.774;2023-07-29T18:21:35;98911.50;;;24.31;nan
10392;BME280;5242;49.244;6.774;2023-07-29T18:29:27;98909.47;;;24.04;nan
10392;BME280;5242;49.244;6.774;2023-07-29T18:37:19;98918.81;;;23.79;nan
10392;BME280;5242;49.244;6.774;2023-07-29T18:45:11;98915.03;;;23.63;nan
10392;BME280;5242;49.244;6.774;2023-07-29T18:53:03;98910.41;;;23.29;nan
10392;BME280;5242;49.244;6.774;2023-07-29T19:00:54;98904.53;;;23.05;nan
10392;BME280;5242;49.244;6.774;2023-07-29T19:08:47;98912.06;;;22.83;nan
10392;BME280;5242;49.244;6.774;2023-07-29T19:16:41;98915.28;;;22.59;nan
10392;BME280;5242;49.244;6.774;2023-07-29T19:24:33;98931.34;;;22.42;nan
10392;BME280;5242;49.244;6.774;2023-07-29T19:32:25;98933.59;;;22.34;nan
10392;BME280;5242;49.244;6.774;2023-07-29T19:40:17;98959.44;;;22.31;nan
10392;BME280;5242;49.244;6.774;2023-07-29T19:48:09;98958.09;;;22.36;nan
10392;BME280;5242;49.244;6.774;2023-07-29T19:56:00;98953.09;;;22.44;nan
10392;BME280;5242;49.244;6.774;2023-07-29T20:03:52;98952.50;;;22.49;nan
10392;BME280;5242;49.244;6.774;2023-07-29T20:11:45;98953.41;;;22.46;nan
10392;BME280;5242;49.244;6.774;2023-07-29T20:19:36;98967.88;;;22.15;nan
10392;BME280;5242;49.244;6.774;2023-07-29T20:27:28;98983.63;;;21.92;nan
10392;BME280;5242;49.244;6.774;2023-07-29T20:35:20;98999.63;;;21.88;nan
10392;BME280;5242;49.244;6.774;2023-07-29T20:43:15;99008.69;;;21.76;nan
10392;BME280;5242;49.244;6.774;2023-07-29T20:51:07;99011.09;;;21.48;nan
10392;BME280;5242;49.244;6.774;2023-07-29T20:58:59;99015.44;;;21.33;nan
10392;BME280;5242;49.244;6.774;2023-07-29T21:06:52;99012.44;;;21.27;nan
10392;BME280;5242;49.244;6.774;2023-07-29T21:14:46;99038.00;;;21.19;nan
10392;BME280;5242;49.244;6.774;2023-07-29T21:22:38;99040.28;;;21.08;nan
10392;BME280;5242;49.244;6.774;2023-07-29T21:30:30;99057.97;;;20.81;nan
10392;BME280;5242;49.244;6.774;2023-07-29T21:38:22;99053.94;;;20.69;nan
10392;BME280;5242;49.244;6.774;2023-07-29T21:46:21;99085.47;;;20.55;nan
10392;BME280;5242;49.244;6.774;2023-07-29T21:54:13;99068.59;;;20.50;nan
10392;BME280;5242;49.244;6.774;2023-07-29T22:02:05;99067.81;;;20.33;nan
10392;BME280;5242;49.244;6.774;2023-07-29T22:09:56;99041.78;;;19.97;nan
10392;BME280;5242;49.244;6.774;2023-07-29T22:17:48;99062.69;;;19.79;nan
10392;BME280;5242;49.244;6.774;2023-07-29T22:25:40;99073.56;;;19.69;nan
10392;BME280;5242;49.244;6.774;2023-07-29T22:33:32;99093.25;;;19.71;nan
10392;BME280;5242;49.244;6.774;2023-07-29T22:41:24;99099.69;;;19.85;nan
10392;BME280;5242;49.244;6.774;2023-07-29T22:49:16;99097.84;;;19.78;nan
10392;BME280;5242;49.244;6.774;2023-07-29T22:57:08;99092.16;;;19.65;nan
10392;BME280;5242;49.244;6.774;2023-07-29T23:05:00;99090.88;;;19.50;nan
10392;BME280;5242;49.244;6.774;2023-07-29T23:12:52;99095.38;;;19.40;nan
10392;BME280;5242;49.244;6.774;2023-07-29T23:20:44;99105.88;;;19.29;nan
10392;BME280;5242;49.244;6.774;2023-07-29T23:28:36;99100.97;;;19.17;nan
10392;BME280;5242;49.244;6.774;2023-07-29T23:36:28;99119.75;;;19.02;nan
10392;BME280;5242;49.244;6.774;2023-07-29T23:44:20;99109.16;;;19.00;nan
10392;BME280;5242;49.244;6.774;2023-07-29T23:52:12;99116.94;;;19.05;nan
